This is the latest recevied weather packets stored in our database for station/object EA1ZE. If no packets are shown the sender has not sent any weather packets the latest 10 day(s).
| Time | Temp. | Humidity | Pressure | Rain* | Wind** | Luminosity | Snow |
|---|---|---|---|---|---|---|---|
| 1777736743 | 16.11° C | 69% | 1012.7 hPa | 0.51 mm | - | - | - |
| 1777735845 | 17.22° C | 72% | 1012.6 hPa | 0.51 mm | - | - | - |
| 1777734941 | 17.22° C | 75% | 1012.4 hPa | 1.78 mm | - | - | - |
| 1777734043 | 15.56° C | 84% | 1012.8 hPa | 1.78 mm | - | - | - |
| 1777733135 | 14.44° C | 84% | 1013 hPa | 1.78 mm | - | - | - |
| 1777732238 | 14.44° C | 75% | 1013.2 hPa | 1.78 mm | - | - | - |
| 1777731341 | 17.78° C | 66% | 1013.4 hPa | 0 mm | - | - | - |
| 1777730437 | 17.78° C | 68% | 1013.2 hPa | 0 mm | - | - | - |
| 1777729535 | 16.67° C | 74% | 1013.4 hPa | 0 mm | - | - | - |
| 1777728700 | 15° C | 79% | 1013.6 hPa | 0 mm | - | - | - |
| 1777727784 | 13.89° C | 81% | 1013.7 hPa | 0 mm | - | - | - |
| 1777726919 | 13.89° C | 81% | 1013.6 hPa | 0.25 mm | - | - | - |
| 1777725988 | 15° C | 75% | 1014.1 hPa | 0.25 mm | - | - | - |
| 1777725110 | 16.11° C | 68% | 1014.3 hPa | 0.25 mm | - | - | - |
| 1777724195 | 17.78° C | 63% | 1014.1 hPa | 0.25 mm | - | - | - |
| 1777723281 | 17.22° C | 67% | 1013.9 hPa | 0 mm | - | - | - |
| 1777722406 | 17.22° C | 67% | 1013.7 hPa | 0 mm | - | - | - |
| 1777721496 | 16.67° C | 74% | 1014.1 hPa | 0 mm | - | - | - |
| 1777720524 | 15° C | 79% | 1014.3 hPa | 1.52 mm | - | - | - |
| 1777719680 | 14.44° C | 87% | 1014.8 hPa | 2.03 mm | - | - | - |
| 1777718748 | 13.89° C | 88% | 1014.9 hPa | 2.54 mm | - | - | - |
| 1777717847 | 13.33° C | 87% | 1015.4 hPa | 2.54 mm | - | - | - |
| 1777716947 | 13.89° C | 84% | 1015.9 hPa | 1.52 mm | - | - | - |
| 1777716043 | 14.44° C | 83% | 1015.9 hPa | 1.27 mm | - | - | - |
| 1777715144 | 15° C | 82% | 1015.4 hPa | 0.51 mm | - | - | - |
* Rain latest hour (hover to see other rain measurements)
** Current wind speed in m/s (hover to see current wind gust speed)